Mentasta Lake, Alaska
Current Conditions -  °F | °C
As of 12:53 AM on Tuesday 21 Oct 2014 (Local Time) from PAOR Reporting Station
Broken Clouds Broken Clouds  
Wind Chill: 20°   Ceiling: 14000
Heat Index: 28°   Visibility: 10mi
Dew Point: 26°   Wind: 8mph
Humidity: 92%   Direction: 100°E
Pressure: 29.24"   Gusts: NA
Location:  63.798°N, 142.321°W
Report Text: PAOR 210853Z 10007KT 10SM SCT080 BKN140 M02/M03 A2924 RMK AO2 SLP927 T10221033 400111022 51021
Loading
Personal Weather Stations






























Interactive Weather Map
Tropical Storm Tracking
New forecast layout! Learn more

10-Day Weather Forecast

Advertisements
Track Severe Weather on mobile